Time;durP1;ratioP1;P1;durP2;ratioP2;P2;SDS_P1;SDS_P2;PMS_P1;PMS_P2;Temp;Humidity;BMP_temperature;BMP_pressure;BME280_temperature;BME280_humidity;BME280_pressure;Samples;Min_cycle;Max_cycle;Signal;HPM_P1;HPM_P2
2021/10/16 00:01:54;;;;;;;5.03;4.50;;;8.70;99.90;;;;;;5036761;28;20166;-66
2021/10/16 00:04:19;;;;;;;4.67;4.27;;;8.80;99.90;;;;;;5036337;28;20181;-66
2021/10/16 00:06:45;;;;;;;5.17;4.50;;;8.80;99.90;;;;;;5035689;28;20200;-66
2021/10/16 00:09:11;;;;;;;5.80;4.82;;;8.70;99.90;;;;;;5036042;28;20672;-65
2021/10/16 00:11:37;;;;;;;4.00;3.60;;;8.60;99.90;;;;;;5035970;28;20181;-65
2021/10/16 00:14:03;;;;;;;4.10;3.83;;;8.60;99.90;;;;;;5036075;28;20177;-65
2021/10/16 00:16:29;;;;;;;4.88;4.47;;;8.50;99.90;;;;;;5034699;28;20170;-64
2021/10/16 00:18:54;;;;;;;4.40;4.10;;;8.40;99.90;;;;;;5035680;28;20255;-63
2021/10/16 00:21:20;;;;;;;5.43;3.37;;;8.40;99.90;;;;;;5034517;28;20428;-65
2021/10/16 00:23:46;;;;;;;5.00;4.33;;;8.30;99.90;;;;;;5035916;28;20293;-64
2021/10/16 00:26:13;;;;;;;4.83;4.37;;;8.30;99.90;;;;;;5035882;28;20412;-65
2021/10/16 00:28:39;;;;;;;7.20;4.45;;;8.30;99.90;;;;;;5035289;28;20438;-65
2021/10/16 00:31:04;;;;;;;5.10;4.13;;;8.30;99.90;;;;;;5035609;28;20202;-65
2021/10/16 00:33:30;;;;;;;5.57;4.90;;;8.20;99.90;;;;;;5035625;28;20411;-65
2021/10/16 00:35:56;;;;;;;4.43;4.03;;;8.20;99.90;;;;;;5035652;28;20168;-64
2021/10/16 00:38:21;;;;;;;4.70;4.30;;;8.10;99.90;;;;;;5034962;28;20284;-65
2021/10/16 00:40:47;;;;;;;5.53;4.20;;;8.10;99.90;;;;;;5035583;28;20182;-65
2021/10/16 00:43:13;;;;;;;4.23;3.83;;;8.10;99.90;;;;;;5035452;28;20180;-65
2021/10/16 00:45:39;;;;;;;5.68;4.57;;;8.10;99.90;;;;;;5035621;28;20180;-65
2021/10/16 00:48:05;;;;;;;5.10;4.57;;;8.10;99.90;;;;;;5034889;28;20718;-67
2021/10/16 00:50:30;;;;;;;4.67;3.63;;;8.10;99.90;;;;;;5034879;28;20229;-65
2021/10/16 00:52:56;;;;;;;4.37;3.97;;;8.10;99.90;;;;;;5034863;28;20181;-65
2021/10/16 00:55:23;;;;;;;5.40;3.90;;;8.20;99.90;;;;;;5034896;28;20199;-68
2021/10/16 00:57:49;;;;;;;5.32;4.43;;;8.20;99.90;;;;;;5034656;28;20254;-66
2021/10/16 01:00:16;;;;;;;3.95;3.55;;;8.20;99.90;;;;;;5035191;28;20257;-66
2021/10/16 01:02:42;;;;;;;4.95;4.13;;;8.20;99.90;;;;;;5035114;28;20177;-65
2021/10/16 01:05:09;;;;;;;4.85;4.45;;;8.20;99.90;;;;;;5034706;28;20636;-66
2021/10/16 01:07:37;;;;;;;5.22;4.53;;;8.30;99.90;;;;;;5034548;28;20240;-65
2021/10/16 01:10:08;;;;;;;5.13;4.63;;;8.30;99.90;;;;;;5034724;28;20198;-66
2021/10/16 01:12:34;;;;;;;4.20;3.90;;;8.20;99.90;;;;;;5034801;28;20253;-65
2021/10/16 01:15:02;;;;;;;4.88;4.13;;;8.10;99.90;;;;;;5034493;28;20169;-65
2021/10/16 01:17:31;;;;;;;5.35;3.97;;;8.10;99.90;;;;;;5034223;28;20736;-66
2021/10/16 01:20:11;;;;;;;5.60;4.43;;;8.10;99.90;;;;;;5033666;28;20181;-65
2021/10/16 01:22:39;;;;;;;6.38;4.05;;;8.10;99.90;;;;;;5034980;28;20185;-64
2021/10/16 01:25:17;;;;;;;8.60;4.90;;;8.10;99.90;;;;;;5034736;28;20181;-64
2021/10/16 01:27:43;;;;;;;5.13;4.28;;;8.10;99.90;;;;;;5032831;28;20277;-66
2021/10/16 01:30:12;;;;;;;4.60;4.10;;;8.10;99.90;;;;;;5034164;28;20197;-65
2021/10/16 01:32:38;;;;;;;4.47;4.00;;;8.00;99.90;;;;;;5034604;28;20163;-67
2021/10/16 01:35:07;;;;;;;4.38;3.97;;;8.00;99.90;;;;;;5034647;28;20180;-64
2021/10/16 01:37:33;;;;;;;3.85;3.55;;;8.00;99.90;;;;;;5033976;28;20197;-67
2021/10/16 01:39:59;;;;;;;3.80;3.50;;;8.10;99.90;;;;;;5034376;28;20173;-66
2021/10/16 01:42:24;;;;;;;3.93;3.63;;;8.10;99.90;;;;;;5034145;28;20428;-68
2021/10/16 01:44:50;;;;;;;5.07;3.63;;;8.10;99.90;;;;;;5034516;28;20260;-66
2021/10/16 01:47:16;;;;;;;3.63;3.33;;;8.00;99.90;;;;;;5033886;28;20177;-66
2021/10/16 01:49:41;;;;;;;3.60;3.40;;;8.00;99.90;;;;;;5034360;28;20623;-67
2021/10/16 01:52:07;;;;;;;5.90;4.37;;;8.00;99.90;;;;;;5033752;28;20659;-64
2021/10/16 01:54:33;;;;;;;6.73;4.80;;;7.90;99.90;;;;;;5033994;28;20223;-66
2021/10/16 01:56:59;;;;;;;4.93;4.07;;;7.90;99.90;;;;;;5031921;28;20535;-66
2021/10/16 01:59:26;;;;;;;4.40;4.00;;;7.80;99.90;;;;;;5034090;28;20420;-65
2021/10/16 02:01:55;;;;;;;4.50;4.13;;;7.90;99.90;;;;;;5034118;28;20714;-65
2021/10/16 02:04:21;;;;;;;5.03;4.43;;;7.90;99.90;;;;;;5033155;28;20655;-66
2021/10/16 02:06:47;;;;;;;4.15;3.75;;;8.00;99.90;;;;;;5033273;28;20696;-65
2021/10/16 02:09:13;;;;;;;5.43;3.93;;;8.00;99.90;;;;;;5033789;28;20332;-65
2021/10/16 02:11:39;;;;;;;4.17;3.77;;;8.10;99.90;;;;;;5033878;28;20292;-65
2021/10/16 02:14:07;;;;;;;4.13;3.63;;;8.10;99.90;;;;;;5033683;28;20169;-65
2021/10/16 02:16:33;;;;;;;4.32;4.00;;;8.10;99.90;;;;;;5033825;28;20178;-64
2021/10/16 02:18:59;;;;;;;5.43;4.40;;;8.20;99.90;;;;;;5033670;28;20716;-65
2021/10/16 02:21:25;;;;;;;4.78;4.32;;;8.20;99.90;;;;;;5033650;28;20408;-66
2021/10/16 02:23:51;;;;;;;4.80;4.40;;;8.30;99.90;;;;;;5013949;28;20171;-65
2021/10/16 02:26:17;;;;;;;4.57;4.17;;;8.20;99.90;;;;;;5014029;28;20597;-65
2021/10/16 02:28:43;;;;;;;4.13;3.72;;;8.20;99.90;;;;;;5013615;28;20824;-65
2021/10/16 02:31:09;;;;;;;7.00;4.85;;;8.10;99.90;;;;;;5013802;28;20228;-65
2021/10/16 02:33:34;;;;;;;5.13;4.00;;;8.10;99.90;;;;;;5013756;28;20166;-65
2021/10/16 02:36:00;;;;;;;5.33;4.20;;;8.10;99.90;;;;;;5013723;28;20458;-65
2021/10/16 02:38:26;;;;;;;4.50;4.00;;;8.20;99.90;;;;;;5031948;28;20231;-65
2021/10/16 02:40:51;;;;;;;4.80;4.37;;;8.10;99.90;;;;;;5033455;28;20412;-65
2021/10/16 02:43:17;;;;;;;4.43;4.00;;;8.20;99.90;;;;;;5033488;28;20208;-66
2021/10/16 02:45:43;;;;;;;4.73;3.50;;;8.20;99.90;;;;;;5033244;28;20235;-64
2021/10/16 02:48:08;;;;;;;4.10;3.70;;;8.20;99.90;;;;;;5032875;28;20208;-65
2021/10/16 02:50:34;;;;;;;5.40;5.00;;;8.20;99.90;;;;;;5033311;28;20202;-66
2021/10/16 02:53:00;;;;;;;4.60;3.53;;;8.30;99.90;;;;;;5031537;28;20553;-66
2021/10/16 02:55:26;;;;;;;6.23;5.00;;;8.30;99.90;;;;;;5032991;28;20663;-65
2021/10/16 02:57:51;;;;;;;6.77;4.30;;;8.30;99.90;;;;;;5032700;28;20193;-65
2021/10/16 03:00:17;;;;;;;4.87;3.77;;;8.30;99.90;;;;;;5033074;28;20427;-65
2021/10/16 03:02:43;;;;;;;4.88;4.40;;;8.30;99.90;;;;;;5032982;28;20209;-67
2021/10/16 03:05:09;;;;;;;5.37;4.90;;;8.30;99.90;;;;;;5033266;28;20256;-65
2021/10/16 03:07:34;;;;;;;6.47;4.17;;;8.40;99.90;;;;;;5032256;28;20194;-65
2021/10/16 03:10:00;;;;;;;5.67;4.50;;;8.50;99.90;;;;;;5033066;28;20201;-65
2021/10/16 03:12:26;;;;;;;6.83;4.67;;;8.50;99.90;;;;;;5032831;28;20166;-64
2021/10/16 03:14:51;;;;;;;6.73;4.97;;;8.50;99.90;;;;;;5035159;28;20176;-65
2021/10/16 03:17:17;;;;;;;4.40;3.73;;;8.60;99.90;;;;;;5036511;28;20248;-65
2021/10/16 03:19:43;;;;;;;4.80;4.40;;;8.60;99.90;;;;;;5036902;28;20260;-66
2021/10/16 03:22:09;;;;;;;4.72;4.15;;;8.60;99.90;;;;;;5036683;28;20232;-64
2021/10/16 03:24:36;;;;;;;5.68;4.93;;;8.60;99.90;;;;;;5036754;28;20170;-65
2021/10/16 03:27:04;;;;;;;4.68;4.10;;;8.60;99.90;;;;;;5036337;28;20182;-66
2021/10/16 03:29:30;;;;;;;3.70;3.50;;;8.60;99.90;;;;;;5036771;28;20284;-65
2021/10/16 03:31:56;;;;;;;4.78;4.32;;;8.60;99.90;;;;;;5036744;28;20170;-66
2021/10/16 03:34:21;;;;;;;8.23;5.00;;;8.60;99.90;;;;;;5035472;28;20181;-65
2021/10/16 03:36:47;;;;;;;4.27;3.90;;;8.60;99.90;;;;;;5036185;28;20178;-66
2021/10/16 03:39:13;;;;;;;4.87;3.23;;;8.70;99.90;;;;;;5035368;28;20209;-66
2021/10/16 03:41:39;;;;;;;4.90;4.50;;;8.60;99.90;;;;;;5036843;28;20177;-65
2021/10/16 03:44:05;;;;;;;4.97;3.70;;;8.60;99.90;;;;;;5036610;28;20690;-65
2021/10/16 03:46:30;;;;;;;4.80;4.10;;;8.60;99.90;;;;;;5036373;28;20443;-65
2021/10/16 03:48:56;;;;;;;6.43;4.80;;;8.60;99.90;;;;;;5036437;28;20420;-65
2021/10/16 03:51:22;;;;;;;5.07;3.73;;;8.60;99.90;;;;;;5036062;28;20304;-64
2021/10/16 03:53:47;;;;;;;4.60;4.20;;;8.50;99.90;;;;;;5036160;28;20170;-64
2021/10/16 03:56:13;;;;;;;3.80;3.50;;;8.40;99.90;;;;;;5036412;28;20247;-64
2021/10/16 03:58:40;;;;;;;4.60;4.03;;;8.40;99.90;;;;;;5036049;28;20186;-65
2021/10/16 04:01:06;;;;;;;6.75;4.60;;;8.30;99.90;;;;;;5036698;28;20206;-65
2021/10/16 04:03:32;;;;;;;4.27;3.50;;;8.30;99.90;;;;;;5038842;28;20193;-65
2021/10/16 04:05:57;;;;;;;4.57;4.07;;;8.30;99.90;;;;;;5038832;28;20398;-64
2021/10/16 04:08:23;;;;;;;4.50;4.10;;;8.30;99.90;;;;;;5038321;28;20435;-65
2021/10/16 04:10:49;;;;;;;4.67;4.33;;;8.20;99.90;;;;;;5037948;28;20456;-65
2021/10/16 04:13:15;;;;;;;3.70;3.00;;;8.10;99.90;;;;;;5038618;28;20177;-67
2021/10/16 04:15:41;;;;;;;5.03;4.63;;;8.10;99.90;;;;;;5036213;28;20216;-66
2021/10/16 04:18:06;;;;;;;4.43;3.60;;;8.10;99.90;;;;;;5034405;28;20194;-64
2021/10/16 04:20:33;;;;;;;4.00;3.63;;;8.00;99.90;;;;;;5035685;28;20182;-67
2021/10/16 04:22:58;;;;;;;4.55;4.15;;;8.00;99.90;;;;;;5036466;28;20635;-65
2021/10/16 04:25:25;;;;;;;3.17;2.87;;;8.00;99.90;;;;;;5036196;28;20256;-65
2021/10/16 04:27:51;;;;;;;4.32;3.92;;;7.90;99.90;;;;;;5035083;28;20232;-66
2021/10/16 04:30:17;;;;;;;4.20;3.90;;;8.00;99.90;;;;;;5036555;28;20201;-66
2021/10/16 04:32:43;;;;;;;4.57;4.18;;;8.00;99.90;;;;;;5035869;28;20513;-66
2021/10/16 04:35:09;;;;;;;8.03;3.23;;;7.90;99.90;;;;;;5033453;28;20167;-65
2021/10/16 04:37:36;;;;;;;4.88;4.40;;;7.90;99.90;;;;;;5033565;28;20440;-65
2021/10/16 04:40:10;;;;;;;3.92;3.63;;;7.90;99.90;;;;;;5035503;28;20177;-66
2021/10/16 04:42:36;;;;;;;4.65;4.25;;;7.80;99.90;;;;;;5035522;28;20246;-66
2021/10/16 04:45:02;;;;;;;4.88;3.88;;;7.90;99.90;;;;;;5035859;28;20177;-65
2021/10/16 04:47:28;;;;;;;5.40;4.23;;;7.90;99.90;;;;;;5034899;28;20292;-65
2021/10/16 04:49:54;;;;;;;4.00;3.65;;;7.90;99.90;;;;;;5034793;28;20451;-65
2021/10/16 04:52:20;;;;;;;4.57;4.27;;;7.90;99.90;;;;;;5035275;28;20193;-65
2021/10/16 04:54:46;;;;;;;5.70;5.20;;;8.00;99.90;;;;;;5034895;28;20425;-66
2021/10/16 04:57:11;;;;;;;6.30;5.80;;;8.00;99.90;;;;;;5034844;28;20416;-65
2021/10/16 04:59:37;;;;;;;6.00;5.47;;;8.00;99.90;;;;;;5034965;28;20202;-65
2021/10/16 05:02:03;;;;;;;6.07;5.07;;;7.90;99.90;;;;;;5034967;28;20510;-65
2021/10/16 05:04:29;;;;;;;6.93;6.23;;;8.00;99.90;;;;;;5034594;28;20193;-65
2021/10/16 05:06:55;;;;;;;5.90;5.38;;;8.00;99.90;;;;;;5034631;28;20176;-64
2021/10/16 05:09:21;;;;;;;5.75;4.93;;;8.00;99.90;;;;;;5034654;28;20186;-65
2021/10/16 05:11:47;;;;;;;4.17;3.80;;;8.00;99.90;;;;;;5033969;28;20235;-65
2021/10/16 05:14:12;;;;;;;7.60;6.70;;;8.00;99.90;;;;;;5035030;28;20178;-65
2021/10/16 05:16:38;;;;;;;5.10;4.60;;;8.10;99.90;;;;;;5034486;28;20162;-65
2021/10/16 05:19:04;;;;;;;7.33;5.63;;;8.10;99.90;;;;;;5034439;28;20684;-64
2021/10/16 05:21:30;;;;;;;6.93;6.15;;;8.10;99.90;;;;;;5034462;28;20645;-65
2021/10/16 05:23:56;;;;;;;7.97;6.10;;;8.10;99.90;;;;;;5034653;28;20256;-65
2021/10/16 05:26:21;;;;;;;5.43;4.80;;;8.20;99.90;;;;;;5034748;28;20260;-65
2021/10/16 05:28:47;;;;;;;5.77;5.20;;;8.20;99.90;;;;;;5032742;28;20652;-65
2021/10/16 05:31:12;;;;;;;5.27;4.87;;;8.20;99.90;;;;;;5034507;28;20213;-64
2021/10/16 05:33:38;;;;;;;7.53;5.67;;;8.30;99.90;;;;;;5032899;28;20174;-65
2021/10/16 05:36:04;;;;;;;6.67;5.60;;;8.30;99.90;;;;;;5034593;28;20239;-65
2021/10/16 05:38:30;;;;;;;3.30;3.00;;;8.30;99.90;;;;;;5033768;28;20197;-64
2021/10/16 05:40:55;;;;;;;4.57;4.10;;;8.40;99.90;;;;;;5034273;28;20174;-66
2021/10/16 05:43:21;;;;;;;5.17;4.77;;;8.40;99.90;;;;;;5034219;28;20166;-65
2021/10/16 05:45:47;;;;;;;3.93;3.63;;;8.40;99.90;;;;;;5034250;28;20455;-65
2021/10/16 05:48:13;;;;;;;4.73;4.23;;;8.50;99.90;;;;;;5033532;28;20201;-66
2021/10/16 05:50:38;;;;;;;4.03;3.50;;;8.50;99.90;;;;;;5033292;28;20205;-64
2021/10/16 05:53:04;;;;;;;4.57;4.17;;;8.50;99.90;;;;;;5033843;28;20416;-67
2021/10/16 05:55:30;;;;;;;6.23;4.77;;;8.50;99.90;;;;;;5034047;28;20185;-64
2021/10/16 05:57:55;;;;;;;6.30;4.13;;;8.50;99.90;;;;;;5033573;28;20218;-67
2021/10/16 06:00:21;;;;;;;5.60;3.60;;;8.50;99.90;;;;;;5033989;28;20169;-65
2021/10/16 06:02:47;;;;;;;4.50;4.10;;;8.40;99.90;;;;;;5033476;28;20213;-65
2021/10/16 06:05:12;;;;;;;4.97;4.17;;;8.50;99.90;;;;;;5033924;28;20174;-65
2021/10/16 06:07:38;;;;;;;4.07;3.73;;;8.50;99.90;;;;;;5033367;28;20672;-65
2021/10/16 06:10:04;;;;;;;5.43;4.83;;;8.40;99.90;;;;;;5033597;28;20204;-65
2021/10/16 06:12:30;;;;;;;4.85;3.95;;;8.50;99.90;;;;;;5034067;28;20174;-65
2021/10/16 06:14:55;;;;;;;7.37;4.53;;;8.50;99.90;;;;;;5033596;28;20163;-65
2021/10/16 06:17:21;;;;;;;5.17;4.67;;;8.50;99.90;;;;;;5033023;28;20193;-65
2021/10/16 06:19:47;;;;;;;6.17;5.57;;;8.60;99.90;;;;;;5033353;28;20663;-66
2021/10/16 06:22:12;;;;;;;4.83;4.20;;;8.70;99.90;;;;;;5033569;28;20182;-65
2021/10/16 06:24:38;;;;;;;3.90;3.50;;;8.70;99.90;;;;;;5033588;28;20174;-66
2021/10/16 06:27:04;;;;;;;7.50;4.53;;;8.70;99.90;;;;;;5031742;28;20178;-67
2021/10/16 06:29:29;;;;;;;7.67;4.50;;;8.70;99.90;;;;;;5033348;28;20263;-64
2021/10/16 06:31:55;;;;;;;5.27;4.20;;;8.70;99.90;;;;;;5033490;28;20190;-66
2021/10/16 06:34:21;;;;;;;6.57;4.37;;;8.80;99.90;;;;;;5033306;28;20186;-66
2021/10/16 06:36:46;;;;;;;5.97;4.70;;;8.80;99.90;;;;;;5032784;28;20178;-65
2021/10/16 06:39:12;;;;;;;4.43;4.13;;;8.90;99.90;;;;;;5033080;28;20679;-65
2021/10/16 06:41:38;;;;;;;4.17;3.60;;;9.00;99.90;;;;;;5033426;28;20166;-66
2021/10/16 06:44:03;;;;;;;5.53;4.90;;;9.10;99.90;;;;;;5033392;28;20249;-66
2021/10/16 06:46:29;;;;;;;9.00;6.10;;;9.10;99.90;;;;;;5033397;28;20166;-66
2021/10/16 06:48:55;;;;;;;5.43;4.90;;;9.10;99.90;;;;;;5032271;28;20704;-66
2021/10/16 06:51:21;;;;;;;4.43;3.93;;;9.20;99.90;;;;;;5033138;28;20225;-65
2021/10/16 06:53:48;;;;;;;5.68;5.03;;;9.30;99.90;;;;;;5032899;28;20413;-66
2021/10/16 06:56:13;;;;;;;6.95;5.05;;;9.40;99.90;;;;;;5032979;28;20185;-65
2021/10/16 06:58:39;;;;;;;11.00;5.57;;;9.40;99.90;;;;;;5032600;28;20190;-66
2021/10/16 07:01:04;;;;;;;5.40;4.83;;;9.50;99.90;;;;;;5033112;28;20223;-66
2021/10/16 07:03:30;;;;;;;4.60;4.23;;;9.40;99.90;;;;;;5032878;28;20209;-65
2021/10/16 07:05:57;;;;;;;6.03;5.13;;;9.50;99.90;;;;;;5033025;28;20190;-66
2021/10/16 07:08:29;;;;;;;5.85;5.20;;;9.50;99.90;;;;;;5032687;28;20189;-67
2021/10/16 07:10:58;;;;;;;6.00;5.10;;;9.50;99.90;;;;;;5033139;28;20206;-66
2021/10/16 07:13:24;;;;;;;4.80;4.10;;;9.60;99.90;;;;;;5031472;28;20181;-68
2021/10/16 07:15:50;;;;;;;8.68;4.68;;;9.60;99.90;;;;;;5033174;28;20242;-66
2021/10/16 07:18:16;;;;;;;9.10;5.93;;;9.60;99.90;;;;;;5032486;28;20578;-65
2021/10/16 07:20:41;;;;;;;5.00;3.97;;;9.60;99.90;;;;;;5031624;28;20412;-66
2021/10/16 07:23:07;;;;;;;5.63;4.70;;;9.70;99.90;;;;;;5032527;28;20711;-66
2021/10/16 07:25:33;;;;;;;8.03;6.30;;;9.70;99.90;;;;;;5032632;28;20600;-66
2021/10/16 07:27:59;;;;;;;6.15;5.50;;;9.80;99.90;;;;;;5032499;28;20284;-66
2021/10/16 07:30:25;;;;;;;5.77;5.20;;;9.80;99.90;;;;;;5031556;28;20288;-66
2021/10/16 07:32:51;;;;;;;6.50;5.40;;;9.80;99.90;;;;;;5032954;28;20609;-66
2021/10/16 07:35:16;;;;;;;6.70;6.00;;;9.90;99.90;;;;;;5031728;28;20416;-66
2021/10/16 07:37:42;;;;;;;8.33;5.47;;;10.00;99.90;;;;;;5031991;28;20331;-65
2021/10/16 07:40:08;;;;;;;7.70;5.93;;;10.10;99.90;;;;;;5032876;28;20517;-65
2021/10/16 07:42:34;;;;;;;5.15;4.63;;;10.10;99.90;;;;;;5032693;28;20185;-66
2021/10/16 07:45:00;;;;;;;7.47;5.97;;;10.30;99.90;;;;;;5032750;28;20182;-66
2021/10/16 07:47:27;;;;;;;5.40;4.90;;;10.30;99.90;;;;;;5032205;28;20695;-66
2021/10/16 07:49:54;;;;;;;7.28;5.82;;;10.40;99.90;;;;;;5032396;28;20213;-66
2021/10/16 07:52:19;;;;;;;6.38;5.80;;;10.40;99.90;;;;;;5032774;28;20629;-65
2021/10/16 07:54:45;;;;;;;7.13;5.50;;;10.50;99.90;;;;;;5031162;28;20182;-66
2021/10/16 07:57:11;;;;;;;6.57;5.90;;;10.50;99.90;;;;;;5032221;28;20514;-66
2021/10/16 07:59:36;;;;;;;6.43;5.27;;;10.60;99.90;;;;;;5032263;28;20526;-66
2021/10/16 08:02:02;;;;;;;8.27;5.60;;;10.60;99.90;;;;;;5033899;28;20657;-67
2021/10/16 08:04:28;;;;;;;6.80;4.53;;;10.80;99.90;;;;;;5036175;28;20186;-66
2021/10/16 08:06:54;;;;;;;6.17;4.70;;;10.90;99.90;;;;;;5035547;28;20511;-66
2021/10/16 08:09:19;;;;;;;7.67;5.33;;;11.10;99.90;;;;;;5035728;28;20202;-65
2021/10/16 08:11:45;;;;;;;6.17;5.57;;;11.20;99.90;;;;;;5035661;28;20170;-67
2021/10/16 08:14:11;;;;;;;5.63;5.03;;;11.20;99.90;;;;;;5035561;28;20174;-67
2021/10/16 08:16:37;;;;;;;5.67;5.17;;;11.10;99.90;;;;;;5035222;28;20178;-66
2021/10/16 08:19:02;;;;;;;7.10;6.05;;;11.20;99.90;;;;;;5035529;28;20196;-68
2021/10/16 08:21:28;;;;;;;7.10;6.10;;;11.30;99.90;;;;;;5035826;28;20181;-67
2021/10/16 08:23:54;;;;;;;6.37;5.40;;;11.40;99.90;;;;;;5035498;28;20174;-65
2021/10/16 08:26:19;;;;;;;5.30;4.63;;;11.40;99.90;;;;;;5035506;28;20254;-65
2021/10/16 08:28:48;;;;;;;14.87;5.67;;;11.40;99.90;;;;;;5034963;28;20200;-66
2021/10/16 08:31:14;;;;;;;7.93;6.03;;;11.40;99.90;;;;;;5035474;28;20200;-65
2021/10/16 08:33:40;;;;;;;7.47;5.63;;;11.30;99.90;;;;;;5034025;28;20768;-67
2021/10/16 08:36:06;;;;;;;6.53;5.20;;;11.30;99.90;;;;;;5035295;28;20379;-68
2021/10/16 08:38:32;;;;;;;10.13;6.75;;;11.30;99.90;;;;;;5034452;28;20230;-67
2021/10/16 08:40:58;;;;;;;8.13;6.53;;;11.30;99.90;;;;;;5035064;28;20201;-66
2021/10/16 08:43:24;;;;;;;10.20;5.85;;;11.30;99.90;;;;;;5035333;28;20372;-66
2021/10/16 08:45:50;;;;;;;9.23;5.93;;;11.30;99.90;;;;;;5034862;28;20179;-66
2021/10/16 08:48:16;;;;;;;8.20;5.50;;;11.30;99.90;;;;;;5034728;28;20399;-66
2021/10/16 08:50:48;;;;;;;5.90;5.30;;;11.20;99.90;;;;;;5035219;28;20208;-67
2021/10/16 08:53:14;;;;;;;8.23;6.45;;;11.30;99.90;;;;;;5035396;28;20232;-66
2021/10/16 08:55:42;;;;;;;13.73;6.13;;;11.40;99.90;;;;;;5033905;28;20276;-67
2021/10/16 08:58:08;;;;;;;8.90;6.07;;;11.40;99.90;;;;;;5033399;28;20672;-67
2021/10/16 09:00:42;;;;;;;11.60;6.90;;;11.40;99.90;;;;;;5034816;28;20426;-67
2021/10/16 09:03:29;;;;;;;7.28;6.50;;;11.40;99.90;;;;;;5035162;28;20909;-65
2021/10/16 09:06:01;;;;;;;6.25;5.30;;;11.40;99.90;;;;;;5035425;28;20175;-66
2021/10/16 09:08:31;;;;;;;7.33;5.90;;;11.40;99.90;;;;;;5034566;28;20187;-67
2021/10/16 09:11:21;;;;;;;6.85;5.57;;;11.50;99.90;;;;;;5034848;28;20516;-66
2021/10/16 09:13:54;;;;;;;7.23;5.80;;;11.60;99.90;;;;;;5034329;28;20234;-64
2021/10/16 09:16:31;;;;;;;8.50;6.55;;;11.60;99.90;;;;;;5034470;28;20418;-66
2021/10/16 09:19:03;;;;;;;8.40;6.80;;;11.60;99.90;;;;;;5014999;28;20215;-66
2021/10/16 09:21:30;;;;;;;8.47;6.07;;;11.70;99.90;;;;;;5015095;28;20489;-66
2021/10/16 09:24:07;;;;;;;6.63;5.90;;;11.70;99.90;;;;;;5014858;28;20403;-66
2021/10/16 09:26:35;;;;;;;8.00;5.53;;;11.90;99.90;;;;;;5025789;28;20848;-66
2021/10/16 09:29:03;;;;;;;8.30;6.23;;;11.90;99.90;;;;;;5034656;28;20476;-66
2021/10/16 09:31:35;;;;;;;8.40;6.50;;;11.90;99.90;;;;;;5033334;28;20458;-66
2021/10/16 09:34:02;;;;;;;6.63;5.70;;;11.90;99.90;;;;;;5034391;28;20452;-68
2021/10/16 09:36:30;;;;;;;7.40;6.10;;;12.00;99.90;;;;;;5034460;28;20390;-66
2021/10/16 09:38:56;;;;;;;11.90;6.40;;;12.00;99.90;;;;;;5034417;28;20789;-67
2021/10/16 09:41:31;;;;;;;8.07;6.23;;;12.10;99.90;;;;;;5034181;28;20397;-66
2021/10/16 09:43:57;;;;;;;7.10;5.07;;;12.20;99.90;;;;;;5034409;28;20454;-66
2021/10/16 09:46:23;;;;;;;8.23;5.90;;;12.30;99.90;;;;;;5034323;28;20443;-66
2021/10/16 09:48:50;;;;;;;7.43;6.67;;;12.40;99.90;;;;;;5033658;28;20442;-66
2021/10/16 09:51:17;;;;;;;7.27;6.03;;;12.50;99.90;;;;;;5033902;28;20568;-67
2021/10/16 09:53:48;;;;;;;8.27;6.33;;;12.50;99.90;;;;;;5034302;28;20762;-66
2021/10/16 09:56:15;;;;;;;6.10;5.50;;;12.70;99.90;;;;;;5033687;28;20572;-67
2021/10/16 09:58:42;;;;;;;8.93;6.27;;;12.80;99.90;;;;;;5033369;28;20398;-66
2021/10/16 10:01:09;;;;;;;6.17;5.53;;;13.00;99.90;;;;;;5033865;28;20428;-66
2021/10/16 10:03:45;;;;;;;6.63;6.00;;;13.10;99.90;;;;;;5033937;28;20499;-66
2021/10/16 10:06:16;;;;;;;6.63;5.07;;;13.10;99.90;;;;;;5034078;28;20454;-66
2021/10/16 10:08:42;;;;;;;7.13;6.50;;;13.10;99.90;;;;;;5033503;28;20833;-66
2021/10/16 10:11:07;;;;;;;6.20;5.33;;;13.20;99.90;;;;;;5033335;28;20470;-66
2021/10/16 10:13:35;;;;;;;7.60;5.83;;;13.30;99.90;;;;;;5033845;28;20415;-67
2021/10/16 10:16:01;;;;;;;6.57;5.97;;;13.30;99.90;;;;;;5033860;28;20416;-65
2021/10/16 10:21:12;;;;;;;7.73;6.20;;;13.30;99.90;;;;;;5034219;28;20374;-66
2021/10/16 10:23:52;;;;;;;7.70;7.00;;;13.40;99.90;;;;;;5033136;28;20387;-65
2021/10/16 10:26:23;;;;;;;6.87;6.17;;;13.40;99.90;;;;;;5033366;28;20910;-67
2021/10/16 10:29:01;;;;;;;6.40;5.80;;;13.60;99.90;;;;;;5033320;28;20458;-65
2021/10/16 10:31:45;;;;;;;9.80;6.80;;;13.60;99.90;;;;;;5032288;28;20464;-66
2021/10/16 10:34:15;;;;;;;8.50;7.70;;;13.80;99.90;;;;;;5033307;28;20407;-66
2021/10/16 10:36:48;;;;;;;6.57;5.87;;;14.00;99.90;;;;;;5033300;28;20443;-67
2021/10/16 10:39:32;;;;;;;9.30;6.73;;;14.30;99.90;;;;;;5031729;28;20888;-67
2021/10/16 10:41:59;;;;;;;10.23;6.83;;;14.60;99.90;;;;;;5033368;28;20450;-66
2021/10/16 10:44:38;;;;;;;7.67;6.87;;;15.10;99.90;;;;;;5033394;28;20407;-68
2021/10/16 10:47:21;;;;;;;10.53;7.83;;;15.50;99.90;;;;;;5032858;28;20767;-67
2021/10/16 10:49:48;;;;;;;7.97;6.20;;;15.90;99.90;;;;;;5032633;28;20432;-66
2021/10/16 10:52:14;;;;;;;7.47;5.90;;;16.10;99.90;;;;;;5033025;28;20416;-66
2021/10/16 10:55:10;;;;;;;7.20;6.50;;;16.40;99.90;;;;;;5032372;28;20442;-67
2021/10/16 10:57:45;;;;;;;7.00;6.30;;;16.40;99.90;;;;;;5031604;28;20400;-66
2021/10/16 11:00:13;;;;;;;14.27;8.73;;;16.50;99.90;;;;;;5033099;28;20405;-66
2021/10/16 11:02:39;;;;;;;7.23;6.50;;;16.60;99.90;;;;;;5033200;28;20412;-67
2021/10/16 11:05:31;;;;;;;7.50;6.10;;;16.50;99.90;;;;;;5032949;28;20401;-67
2021/10/16 11:08:04;;;;;;;6.77;6.07;;;16.20;99.90;;;;;;5031188;28;20425;-66
2021/10/16 11:10:30;;;;;;;10.40;7.40;;;16.10;99.90;;;;;;5032678;28;20869;-65
2021/10/16 11:12:56;;;;;;;8.17;7.33;;;16.30;99.90;;;;;;5032834;28;20463;-67
2021/10/16 11:15:22;;;;;;;7.10;6.40;;;16.40;99.90;;;;;;5031638;28;20423;-66
2021/10/16 11:17:49;;;;;;;8.00;6.47;;;16.60;99.90;;;;;;5031031;28;20656;-67
2021/10/16 11:20:33;;;;;;;7.73;6.87;;;16.70;99.90;;;;;;5032784;28;20839;-68
2021/10/16 11:22:59;;;;;;;6.87;6.00;;;16.70;99.90;;;;;;5032557;28;20441;-67
2021/10/16 11:25:26;;;;;;;6.63;5.63;;;16.80;99.90;;;;;;5032429;28;20452;-67
2021/10/16 11:28:12;;;;;;;8.50;7.00;;;16.80;99.90;;;;;;5032513;28;20272;-67
2021/10/16 11:30:43;;;;;;;7.00;6.23;;;16.80;99.90;;;;;;5033002;28;21017;-67
2021/10/16 11:33:11;;;;;;;6.80;6.10;;;16.90;99.90;;;;;;5032839;28;20404;-67
2021/10/16 11:35:42;;;;;;;8.27;7.47;;;16.90;99.90;;;;;;5034203;28;20382;-67
2021/10/16 11:38:10;;;;;;;7.97;6.80;;;16.90;99.90;;;;;;5036266;28;20436;-67
2021/10/16 11:40:37;;;;;;;7.33;6.60;;;16.90;99.90;;;;;;5036679;28;20478;-66
2021/10/16 11:43:24;;;;;;;7.13;6.43;;;16.80;99.90;;;;;;5036693;28;20914;-67
2021/10/16 11:45:52;;;;;;;11.20;6.37;;;16.80;99.90;;;;;;5036601;28;20414;-67
2021/10/16 11:48:21;;;;;;;7.90;6.20;;;17.00;99.90;;;;;;5035766;28;20447;-67
2021/10/16 11:50:52;;;;;;;5.67;5.07;;;16.90;99.90;;;;;;5036213;28;20807;-67
2021/10/16 11:53:28;;;;;;;4.97;4.47;;;16.60;99.90;;;;;;5036645;28;20403;-67
2021/10/16 11:56:00;;;;;;;5.53;5.03;;;16.50;99.90;;;;;;5036335;28;20504;-66
2021/10/16 11:58:27;;;;;;;5.63;4.50;;;16.40;99.90;;;;;;5035986;28;20520;-66
2021/10/16 12:00:58;;;;;;;5.77;5.10;;;16.40;99.90;;;;;;5036483;28;20388;-67
2021/10/16 12:03:32;;;;;;;6.30;5.63;;;16.50;99.90;;;;;;5036112;28;20430;-67
2021/10/16 12:06:04;;;;;;;5.00;4.17;;;16.50;99.90;;;;;;5036215;28;20439;-67
2021/10/16 12:08:39;;;;;;;7.50;5.87;;;16.30;99.90;;;;;;5035889;28;20486;-66
2021/10/16 12:11:05;;;;;;;5.90;5.27;;;16.30;99.90;;;;;;5035835;28;20534;-67
2021/10/16 12:13:36;;;;;;;4.60;4.20;;;16.30;99.90;;;;;;5035701;28;20422;-67
2021/10/16 12:16:16;;;;;;;6.07;5.37;;;16.50;99.90;;;;;;5035924;28;20405;-66
2021/10/16 12:19:01;;;;;;;5.60;5.03;;;16.60;99.90;;;;;;5035552;28;20400;-67
2021/10/16 12:21:31;;;;;;;7.50;6.70;;;16.80;99.90;;;;;;5036106;28;20468;-67
2021/10/16 12:24:00;;;;;;;9.70;6.43;;;17.10;99.90;;;;;;5035687;28;20912;-67
2021/10/16 12:26:32;;;;;;;11.33;7.73;;;17.20;99.90;;;;;;5035769;28;20434;-67
2021/10/16 12:29:00;;;;;;;7.67;6.80;;;17.30;99.90;;;;;;5034207;28;20414;-67
2021/10/16 12:31:27;;;;;;;7.00;5.63;;;17.20;99.90;;;;;;5035469;28;20427;-67
2021/10/16 12:34:04;;;;;;;5.57;4.90;;;17.00;99.90;;;;;;5035771;28;20399;-67
2021/10/16 12:36:42;;;;;;;7.70;6.10;;;16.70;99.90;;;;;;5035572;28;20407;-68
2021/10/16 12:39:10;;;;;;;8.67;7.87;;;16.50;99.90;;;;;;5035215;28;20956;-68
2021/10/16 12:41:46;;;;;;;8.70;6.03;;;16.50;99.90;;;;;;5035561;28;20844;-66
2021/10/16 12:44:33;;;;;;;10.10;7.00;;;16.40;99.90;;;;;;5035540;28;20415;-66
2021/10/16 12:47:09;;;;;;;8.93;8.10;;;16.30;99.90;;;;;;5034451;28;20409;-67
2021/10/16 12:49:36;;;;;;;8.00;6.37;;;16.00;99.90;;;;;;5035353;28;20423;-67
2021/10/16 12:52:04;;;;;;;10.33;6.80;;;15.90;99.90;;;;;;5035273;28;20421;-67
2021/10/16 12:54:32;;;;;;;9.00;7.07;;;15.80;99.90;;;;;;5035036;28;20391;-67
2021/10/16 12:57:06;;;;;;;10.00;7.93;;;15.90;99.90;;;;;;5033854;28;20765;-67
2021/10/16 12:59:32;;;;;;;9.83;7.50;;;15.90;99.90;;;;;;5035454;28;20400;-66